Time;durP1;ratioP1;P1;durP2;ratioP2;P2;SDS_P1;SDS_P2;PMS_P1;PMS_P2;Temp;Humidity;BMP_temperature;BMP_pressure;BME280_temperature;BME280_humidity;BME280_pressure;Samples;Min_cycle;Max_cycle;Signal;HPM_P1;HPM_P2
2022/03/29 01:10:56;;;;;;;0.10;0.10;;;;;;;;;;5128340;27;20308;-77
2022/03/29 01:13:23;;;;;;;0.10;0.10;;;;;;;;;;5144709;27;20206;-78
2022/03/29 01:15:51;;;;;;;0.10;0.10;;;;;;;;;;5126884;27;20443;-77
2022/03/29 01:18:17;;;;;;;0.10;0.10;;;;;;;;;;5145715;27;20198;-78
2022/03/29 01:20:44;;;;;;;0.10;0.10;;;;;;;;;;5122125;27;20387;-77
2022/03/29 01:23:12;;;;;;;0.50;0.50;;;;;;;;;;5147073;27;20246;-77
2022/03/29 01:25:40;;;;;;;0.30;0.30;;;;;;;;;;5123896;27;20240;-78
2022/03/29 01:28:07;;;;;;;0.20;0.20;;;;;;;;;;5148217;27;20205;-77
2022/03/29 01:30:34;;;;;;;0.70;0.70;;;;;;;;;;5122507;27;20320;-76
2022/03/29 01:33:01;;;;;;;0.10;0.10;;;;;;;;;;5129353;27;20266;-79
2022/03/29 01:35:28;;;;;;;0.10;0.10;;;;;;;;;;5100541;27;20427;-77
2022/03/29 01:37:55;;;;;;;2.30;2.10;;;;;;;;;;5130830;27;20194;-78
2022/03/29 01:40:23;;;;;;;0.10;0.10;;;;;;;;;;5098264;27;20332;-78
2022/03/29 01:42:51;;;;;;;0.10;0.10;;;;;;;;;;5132670;27;20195;-76
2022/03/29 01:45:18;;;;;;;0.10;0.10;;;;;;;;;;5096642;27;20233;-78
2022/03/29 01:47:44;;;;;;;0.10;0.10;;;;;;;;;;5133965;27;20290;-77
2022/03/29 01:50:11;;;;;;;0.20;0.20;;;;;;;;;;5095312;27;20202;-77
2022/03/29 01:52:38;;;;;;;0.53;0.53;;;;;;;;;;5135466;27;20241;-79
2022/03/29 01:55:05;;;;;;;0.10;0.10;;;;;;;;;;5104020;28;20207;-78
2022/03/29 01:57:32;;;;;;;0.20;0.20;;;;;;;;;;5092832;28;20404;-77
2022/03/29 02:02:43;;;;;;;0.10;0.10;;;;;;;;;;5103775;28;20225;-77
2022/03/29 02:05:09;;;;;;;0.10;0.10;;;;;;;;;;5093934;28;20238;-78
2022/03/29 02:07:36;;;;;;;0.10;0.10;;;;;;;;;;5119377;28;20204;-77
2022/03/29 02:10:02;;;;;;;0.10;0.10;;;;;;;;;;5104046;28;20199;-77
2022/03/29 02:12:28;;;;;;;0.10;0.10;;;;;;;;;;5126558;27;20250;-78
2022/03/29 02:14:57;;;;;;;0.10;0.10;;;;;;;;;;5103821;28;20237;-77
2022/03/29 02:17:24;;;;;;;0.20;0.20;;;;;;;;;;5126534;27;20313;-78
2022/03/29 02:19:50;;;;;;;0.10;0.10;;;;;;;;;;5103967;28;20460;-78
2022/03/29 02:22:17;;;;;;;0.27;0.27;;;;;;;;;;5126368;27;20240;-78
2022/03/29 02:24:43;;;;;;;0.10;0.10;;;;;;;;;;5103830;28;20230;-78
2022/03/29 02:27:10;;;;;;;0.10;0.10;;;;;;;;;;5126075;27;20307;-78
2022/03/29 02:29:36;;;;;;;0.10;0.10;;;;;;;;;;5103590;28;20206;-78
2022/03/29 02:32:05;;;;;;;0.10;0.10;;;;;;;;;;5124928;27;20270;-77
2022/03/29 02:34:32;;;;;;;0.10;0.10;;;;;;;;;;5103435;27;20198;-78
2022/03/29 02:36:58;;;;;;;0.10;0.10;;;;;;;;;;5123737;27;20239;-77
2022/03/29 02:39:25;;;;;;;0.10;0.10;;;;;;;;;;5105264;27;20239;-78
2022/03/29 02:41:51;;;;;;;0.20;0.20;;;;;;;;;;5121903;27;20251;-78
2022/03/29 02:44:17;;;;;;;0.10;0.10;;;;;;;;;;5107039;27;20399;-77
2022/03/29 02:46:44;;;;;;;0.10;0.10;;;;;;;;;;5118901;27;20240;-77
2022/03/29 02:49:12;;;;;;;0.10;0.10;;;;;;;;;;5108769;27;20237;-79
2022/03/29 02:51:38;;;;;;;0.20;0.20;;;;;;;;;;5118160;27;20357;-78
2022/03/29 02:54:05;;;;;;;0.10;0.10;;;;;;;;;;5110912;27;20229;-77
2022/03/29 02:56:31;;;;;;;11.37;10.50;;;;;;;;;;5116466;27;20309;-78
2022/03/29 02:58:58;;;;;;;0.20;0.20;;;;;;;;;;5112443;27;20263;-77
2022/03/29 03:01:28;;;;;;;0.10;0.10;;;;;;;;;;5114093;27;20582;-78
2022/03/29 03:03:55;;;;;;;0.20;0.20;;;;;;;;;;5113527;27;20203;-77
2022/03/29 03:06:24;;;;;;;0.50;0.50;;;;;;;;;;5113306;27;20421;-78
2022/03/29 03:08:50;;;;;;;0.10;0.10;;;;;;;;;;5114584;28;20204;-79
2022/03/29 03:11:17;;;;;;;0.10;0.10;;;;;;;;;;5112141;27;20239;-77
2022/03/29 03:13:43;;;;;;;0.10;0.10;;;;;;;;;;5116675;28;20195;-78
2022/03/29 03:16:10;;;;;;;0.50;0.50;;;;;;;;;;5110174;27;20247;-78
2022/03/29 03:18:38;;;;;;;0.10;0.10;;;;;;;;;;5117919;27;20370;-77
2022/03/29 03:21:06;;;;;;;0.10;0.10;;;;;;;;;;5108817;27;20240;-77
2022/03/29 03:23:33;;;;;;;0.10;0.10;;;;;;;;;;5118476;28;20191;-77
2022/03/29 03:26:00;;;;;;;0.10;0.10;;;;;;;;;;5107676;27;20243;-79
2022/03/29 03:28:26;;;;;;;0.10;0.10;;;;;;;;;;5120399;28;20206;-78
2022/03/29 03:30:53;;;;;;;0.10;0.10;;;;;;;;;;5105326;27;20288;-78
2022/03/29 03:33:19;;;;;;;0.20;0.20;;;;;;;;;;5125882;27;20217;-78
2022/03/29 03:35:46;;;;;;;0.10;0.10;;;;;;;;;;5107562;27;20576;-79
2022/03/29 03:38:12;;;;;;;0.20;0.20;;;;;;;;;;5128239;27;20260;-78
2022/03/29 03:40:41;;;;;;;0.10;0.10;;;;;;;;;;5105421;27;20283;-78
2022/03/29 03:43:07;;;;;;;0.30;0.30;;;;;;;;;;5130094;27;20215;-77
2022/03/29 03:45:36;;;;;;;0.37;0.37;;;;;;;;;;5104327;27;20312;-77
2022/03/29 03:48:02;;;;;;;0.10;0.10;;;;;;;;;;5131013;27;20206;-77
2022/03/29 03:50:29;;;;;;;0.10;0.10;;;;;;;;;;5102835;27;20300;-78
2022/03/29 03:52:55;;;;;;;0.33;0.33;;;;;;;;;;5132625;27;20368;-78
2022/03/29 03:55:22;;;;;;;0.10;0.10;;;;;;;;;;5097677;27;20200;-78
2022/03/29 03:57:54;;;;;;;0.50;0.50;;;;;;;;;;5137350;27;20226;-77
2022/03/29 04:00:21;;;;;;;0.10;0.10;;;;;;;;;;5099759;27;20191;-78
2022/03/29 04:02:49;;;;;;;0.10;0.10;;;;;;;;;;5134869;27;20206;-78
2022/03/29 04:05:15;;;;;;;0.10;0.10;;;;;;;;;;5097681;28;20268;-77
2022/03/29 04:07:42;;;;;;;0.20;0.20;;;;;;;;;;5138735;27;20227;-78
2022/03/29 04:10:09;;;;;;;0.20;0.20;;;;;;;;;;5096914;27;20243;-78
2022/03/29 04:12:35;;;;;;;0.10;0.10;;;;;;;;;;5138168;27;20206;-77
2022/03/29 04:15:04;;;;;;;0.10;0.10;;;;;;;;;;5105976;28;20241;-77
2022/03/29 04:17:31;;;;;;;0.10;0.10;;;;;;;;;;5094734;28;20429;-78
2022/03/29 04:19:58;;;;;;;0.17;0.17;;;;;;;;;;5106322;28;20203;-78
2022/03/29 04:22:25;;;;;;;0.20;0.20;;;;;;;;;;5128386;27;20264;-76
2022/03/29 04:24:51;;;;;;;0.10;0.10;;;;;;;;;;5106043;28;20226;-77
2022/03/29 04:27:17;;;;;;;0.20;0.20;;;;;;;;;;5128187;27;20285;-78
2022/03/29 04:29:44;;;;;;;0.13;0.13;;;;;;;;;;5105975;28;20433;-79
2022/03/29 04:32:11;;;;;;;0.10;0.10;;;;;;;;;;5128217;27;20271;-76
2022/03/29 04:34:38;;;;;;;0.23;0.23;;;;;;;;;;5106164;28;20246;-79
2022/03/29 04:37:04;;;;;;;0.20;0.20;;;;;;;;;;5127727;27;20237;-77
2022/03/29 04:39:31;;;;;;;0.10;0.10;;;;;;;;;;5105731;28;20251;-78
2022/03/29 04:41:57;;;;;;;0.50;0.50;;;;;;;;;;5126068;27;20240;-79
2022/03/29 04:44:24;;;;;;;0.10;0.10;;;;;;;;;;5105848;27;20218;-77
2022/03/29 04:46:50;;;;;;;0.10;0.10;;;;;;;;;;5123568;27;20236;-78
2022/03/29 04:49:21;;;;;;;0.10;0.10;;;;;;;;;;5109502;27;20262;-78
2022/03/29 04:51:47;;;;;;;0.20;0.20;;;;;;;;;;5122938;27;20555;-80
2022/03/29 04:54:14;;;;;;;0.20;0.20;;;;;;;;;;5109879;27;20202;-78
2022/03/29 04:56:40;;;;;;;0.10;0.10;;;;;;;;;;5121277;27;20448;-79
2022/03/29 04:59:06;;;;;;;0.20;0.20;;;;;;;;;;5111890;27;20198;-78
2022/03/29 05:01:33;;;;;;;0.70;0.70;;;;;;;;;;5119155;27;20241;-77
2022/03/29 05:03:59;;;;;;;0.20;0.20;;;;;;;;;;5114097;27;20211;-77
2022/03/29 05:06:27;;;;;;;0.20;0.20;;;;;;;;;;5116954;27;20560;-78
2022/03/29 05:08:54;;;;;;;0.30;0.30;;;;;;;;;;5115211;27;20218;-78
2022/03/29 05:11:20;;;;;;;0.20;0.20;;;;;;;;;;5115049;27;20237;-77
2022/03/29 05:13:46;;;;;;;0.37;0.37;;;;;;;;;;5117152;27;20203;-79
2022/03/29 05:16:12;;;;;;;0.20;0.20;;;;;;;;;;5112719;27;20263;-78
2022/03/29 05:18:39;;;;;;;0.20;0.20;;;;;;;;;;5119113;27;20194;-77
2022/03/29 05:21:05;;;;;;;0.10;0.10;;;;;;;;;;5110576;27;20241;-78
2022/03/29 05:23:33;;;;;;;0.20;0.20;;;;;;;;;;5121320;27;20319;-79
2022/03/29 05:25:59;;;;;;;0.10;0.10;;;;;;;;;;5109000;27;20241;-75
2022/03/29 05:28:26;;;;;;;2.43;2.40;;;;;;;;;;5122210;27;20400;-77
2022/03/29 05:30:52;;;;;;;0.20;0.20;;;;;;;;;;5106972;27;20237;-78
2022/03/29 05:33:18;;;;;;;0.77;0.77;;;;;;;;;;5124671;27;20251;-77
2022/03/29 05:35:45;;;;;;;0.73;0.73;;;;;;;;;;5104947;27;20282;-78
2022/03/29 05:38:12;;;;;;;0.20;0.20;;;;;;;;;;5126091;27;20207;-77
2022/03/29 05:40:41;;;;;;;0.70;0.70;;;;;;;;;;5102648;27;20241;-77
2022/03/29 05:43:11;;;;;;;0.10;0.10;;;;;;;;;;5127496;27;20276;-77
2022/03/29 05:45:37;;;;;;;0.10;0.10;;;;;;;;;;5102643;27;20472;-78
2022/03/29 05:50:50;;;;;;;0.20;0.20;;;;;;;;;;5105740;27;20320;-77
2022/03/29 05:53:17;;;;;;;0.17;0.17;;;;;;;;;;5124648;27;20202;-78
2022/03/29 05:55:45;;;;;;;0.17;0.17;;;;;;;;;;5103403;27;20474;-77
2022/03/29 05:58:12;;;;;;;0.20;0.20;;;;;;;;;;5125878;27;20388;-78
2022/03/29 06:00:38;;;;;;;0.20;0.20;;;;;;;;;;5102033;27;20245;-77
2022/03/29 06:03:04;;;;;;;0.20;0.20;;;;;;;;;;5128764;27;20297;-77
2022/03/29 06:05:32;;;;;;;0.10;0.10;;;;;;;;;;5100255;27;20442;-78
2022/03/29 06:07:59;;;;;;;0.20;0.20;;;;;;;;;;5129286;27;20202;-79
2022/03/29 06:10:25;;;;;;;0.20;0.20;;;;;;;;;;5098977;27;20245;-79
2022/03/29 06:12:53;;;;;;;0.10;0.10;;;;;;;;;;5130928;27;20486;-75
2022/03/29 06:15:20;;;;;;;0.20;0.20;;;;;;;;;;5097143;27;20248;-75
2022/03/29 06:17:46;;;;;;;0.43;0.43;;;;;;;;;;5132368;27;20448;-76
2022/03/29 06:20:13;;;;;;;0.77;0.77;;;;;;;;;;5094848;27;20386;-75
2022/03/29 06:22:42;;;;;;;0.53;0.53;;;;;;;;;;5134144;27;20395;-74
2022/03/29 06:25:09;;;;;;;0.20;0.20;;;;;;;;;;5094059;27;20203;-75
2022/03/29 06:27:35;;;;;;;0.20;0.20;;;;;;;;;;5135101;27;20217;-76
2022/03/29 06:30:04;;;;;;;0.50;0.50;;;;;;;;;;5103260;28;20199;-77
2022/03/29 06:32:30;;;;;;;0.20;0.20;;;;;;;;;;5125814;27;20419;-77
2022/03/29 06:34:58;;;;;;;0.20;0.20;;;;;;;;;;5102182;28;20222;-79
2022/03/29 06:37:24;;;;;;;0.13;0.13;;;;;;;;;;5125772;27;20259;-78
2022/03/29 06:39:52;;;;;;;0.17;0.17;;;;;;;;;;5103559;28;20229;-77
2022/03/29 06:42:19;;;;;;;0.47;0.47;;;;;;;;;;5125792;27;20552;-77
2022/03/29 06:44:46;;;;;;;0.10;0.10;;;;;;;;;;5103221;28;20206;-75
2022/03/29 06:47:18;;;;;;;0.20;0.20;;;;;;;;;;5125489;27;20234;-76
2022/03/29 06:49:44;;;;;;;0.10;0.10;;;;;;;;;;5103021;28;20506;-76
2022/03/29 06:52:11;;;;;;;0.10;0.10;;;;;;;;;;5124457;27;20274;-76
2022/03/29 06:54:38;;;;;;;0.10;0.10;;;;;;;;;;5103358;28;20195;-76
2022/03/29 06:57:04;;;;;;;0.17;0.17;;;;;;;;;;5124854;27;20245;-78
2022/03/29 06:59:39;;;;;;;0.20;0.20;;;;;;;;;;5103565;28;20522;-79
2022/03/29 07:02:26;;;;;;;0.20;0.20;;;;;;;;;;5074792;28;20251;-78
2022/03/29 07:05:28;;;;;;;0.10;0.10;;;;;;;;;;5069479;28;20198;-77
2022/03/29 07:08:12;;;;;;;;;;;;;;;;;;;;;
2022/03/29 07:13:25;;;;;;;0.10;0.10;;;;;;;;;;5040583;28;20427;-78
2022/03/29 07:15:52;;;;;;;0.20;0.20;;;;;;;;;;5024749;28;20248;-76
2022/03/29 07:18:21;;;;;;;0.10;0.10;;;;;;;;;;5040438;28;20217;-76
2022/03/29 07:20:49;;;;;;;0.10;0.10;;;;;;;;;;5024051;28;20249;-72
2022/03/29 07:23:15;;;;;;;0.20;0.20;;;;;;;;;;5029808;28;20212;-73
2022/03/29 07:25:42;;;;;;;0.10;0.10;;;;;;;;;;5025380;28;20453;-72
2022/03/29 07:28:11;;;;;;;0.20;0.20;;;;;;;;;;5012101;28;20243;-72
2022/03/29 07:30:38;;;;;;;0.10;0.10;;;;;;;;;;5014896;28;20244;-73
2022/03/29 07:33:05;;;;;;;0.40;0.40;;;;;;;;;;5032331;28;20250;-73
2022/03/29 07:35:32;;;;;;;1.37;1.03;;;;;;;;;;5014246;28;20244;-73
2022/03/29 07:38:02;;;;;;;0.30;0.30;;;;;;;;;;5101587;28;20457;-74
2022/03/29 07:40:29;;;;;;;0.10;0.10;;;;;;;;;;5098799;27;20241;-74
2022/03/29 07:42:56;;;;;;;0.17;0.17;;;;;;;;;;5128609;28;20193;-73
2022/03/29 07:45:22;;;;;;;0.20;0.20;;;;;;;;;;5096903;27;20230;-75
2022/03/29 07:47:51;;;;;;;0.60;0.60;;;;;;;;;;5130529;28;20294;-73
2022/03/29 07:50:18;;;;;;;0.50;0.50;;;;;;;;;;5095781;27;20207;-70
2022/03/29 07:52:45;;;;;;;0.10;0.10;;;;;;;;;;5131479;28;20206;-74
2022/03/29 07:55:13;;;;;;;0.10;0.10;;;;;;;;;;5093736;27;20222;-72
2022/03/29 07:57:40;;;;;;;0.10;0.10;;;;;;;;;;5133373;27;20193;-72
2022/03/29 08:02:47;;;;;;;0.10;0.10;;;;;;;;;;5102530;28;20203;-70
2022/03/29 08:05:14;;;;;;;1.60;1.60;;;;;;;;;;5093863;28;20214;-72
2022/03/29 08:07:41;;;;;;;0.20;0.20;;;;;;;;;;5133161;28;20220;-72
2022/03/29 08:10:08;;;;;;;0.10;0.10;;;;;;;;;;5092413;27;20246;-74
2022/03/29 08:12:36;;;;;;;0.10;0.10;;;;;;;;;;5134432;28;20527;-75
2022/03/29 08:15:02;;;;;;;0.30;0.30;;;;;;;;;;5102526;28;20256;-74
2022/03/29 08:17:29;;;;;;;0.10;0.10;;;;;;;;;;5125289;27;20260;-75
2022/03/29 08:19:55;;;;;;;0.10;0.10;;;;;;;;;;5106461;28;20204;-70
2022/03/29 08:22:21;;;;;;;0.10;0.10;;;;;;;;;;5128496;27;20392;-75
2022/03/29 08:24:48;;;;;;;0.10;0.10;;;;;;;;;;5106043;28;20396;-73
2022/03/29 08:27:14;;;;;;;0.10;0.10;;;;;;;;;;5128287;27;20311;-72
2022/03/29 08:29:43;;;;;;;0.10;0.10;;;;;;;;;;5106077;28;20233;-72
2022/03/29 08:32:09;;;;;;;1.40;1.40;;;;;;;;;;5128207;27;20282;-72
2022/03/29 08:34:35;;;;;;;0.10;0.10;;;;;;;;;;5106093;28;20353;-72
2022/03/29 08:37:02;;;;;;;0.20;0.20;;;;;;;;;;5127445;27;20416;-71
2022/03/29 08:42:26;;;;;;;;;;;;;;;;;;;;;
2022/03/29 08:44:55;;;;;;;0.10;0.10;;;;;;;;;;5076755;28;20237;-73
2022/03/29 08:47:21;;;;;;;0.23;0.23;;;;;;;;;;5055875;28;20675;-73
2022/03/29 08:49:49;;;;;;;0.20;0.20;;;;;;;;;;5082866;28;20242;-73
2022/03/29 08:52:17;;;;;;;0.27;0.27;;;;;;;;;;5056179;28;20241;-71
2022/03/29 08:54:44;;;;;;;0.33;0.33;;;;;;;;;;5083087;28;20280;-73
2022/03/29 08:57:11;;;;;;;0.10;0.10;;;;;;;;;;5055872;28;20238;-73
2022/03/29 08:59:37;;;;;;;0.10;0.10;;;;;;;;;;5082995;28;20508;-71
2022/03/29 09:02:10;;;;;;;0.53;0.53;;;;;;;;;;5055764;28;20249;-73
2022/03/29 09:04:36;;;;;;;0.10;0.10;;;;;;;;;;5082680;28;20218;-75
2022/03/29 09:07:03;;;;;;;0.10;0.10;;;;;;;;;;5069369;28;20240;-73
2022/03/29 09:09:31;;;;;;;0.10;0.10;;;;;;;;;;5105046;28;20197;-72
2022/03/29 09:11:58;;;;;;;0.10;0.10;;;;;;;;;;5125395;27;20240;-73
2022/03/29 09:14:25;;;;;;;0.10;0.10;;;;;;;;;;5106486;28;20535;-72
2022/03/29 09:16:51;;;;;;;0.10;0.10;;;;;;;;;;5123431;27;20451;-73
2022/03/29 09:19:20;;;;;;;0.10;0.10;;;;;;;;;;5108262;27;20210;-72
2022/03/29 09:21:47;;;;;;;0.10;0.10;;;;;;;;;;5122148;27;20241;-73
2022/03/29 09:24:14;;;;;;;0.10;0.10;;;;;;;;;;5109855;27;20205;-74
2022/03/29 09:26:41;;;;;;;0.10;0.10;;;;;;;;;;5119797;27;20274;-72
2022/03/29 09:29:17;;;;;;;0.10;0.10;;;;;;;;;;5111275;27;20207;-72
2022/03/29 09:31:44;;;;;;;0.10;0.10;;;;;;;;;;5121088;27;20285;-73
2022/03/29 09:34:11;;;;;;;0.10;0.10;;;;;;;;;;5110150;27;20453;-74
2022/03/29 09:36:43;;;;;;;0.10;0.10;;;;;;;;;;5119312;27;20560;-72
2022/03/29 09:39:10;;;;;;;0.10;0.10;;;;;;;;;;5110695;27;20205;-74
2022/03/29 09:41:40;;;;;;;0.10;0.10;;;;;;;;;;5119532;27;20477;-73
2022/03/29 09:44:07;;;;;;;0.17;0.17;;;;;;;;;;5110983;27;20212;-73
2022/03/29 09:46:53;;;;;;;0.10;0.10;;;;;;;;;;5118223;27;20409;-74
2022/03/29 09:49:20;;;;;;;0.10;0.10;;;;;;;;;;5107590;27;20199;-74
2022/03/29 09:51:47;;;;;;;0.10;0.10;;;;;;;;;;5121424;27;20243;-75
2022/03/29 09:54:14;;;;;;;0.10;0.10;;;;;;;;;;5108891;27;20202;-75
2022/03/29 09:56:40;;;;;;;0.10;0.10;;;;;;;;;;5119645;27;20597;-75
2022/03/29 09:59:07;;;;;;;0.10;0.10;;;;;;;;;;5111022;27;20203;-73
2022/03/29 10:01:46;;;;;;;0.10;0.10;;;;;;;;;;5117885;27;20243;-74
2022/03/29 10:04:13;;;;;;;0.10;0.10;;;;;;;;;;5108935;27;20191;-71
2022/03/29 10:06:39;;;;;;;0.10;0.10;;;;;;;;;;5119186;27;20240;-73
2022/03/29 10:11:51;;;;;;;0.10;0.10;;;;;;;;;;5122044;27;20602;-77
2022/03/29 10:14:21;;;;;;;0.10;0.10;;;;;;;;;;5107496;27;20202;-77
2022/03/29 10:16:48;;;;;;;0.10;0.10;;;;;;;;;;5121390;27;20237;-76
2022/03/29 10:19:14;;;;;;;0.10;0.10;;;;;;;;;;5108235;27;20245;-76
2022/03/29 10:21:42;;;;;;;0.10;0.10;;;;;;;;;;5119240;27;20237;-78
2022/03/29 10:24:15;;;;;;;0.10;0.10;;;;;;;;;;5110155;27;20202;-76
2022/03/29 10:26:42;;;;;;;0.10;0.10;;;;;;;;;;5119161;27;20300;-77
2022/03/29 10:29:08;;;;;;;0.10;0.10;;;;;;;;;;5109740;27;20665;-77
2022/03/29 10:31:36;;;;;;;0.00;0.00;;;;;;;;;;5117248;27;20303;-76
2022/03/29 10:34:17;;;;;;;0.10;0.10;;;;;;;;;;5111201;27;20201;-76
2022/03/29 10:37:01;;;;;;;0.10;0.10;;;;;;;;;;5119921;27;20297;-75
2022/03/29 10:39:55;;;;;;;0.10;0.10;;;;;;;;;;5104438;27;20209;-78
2022/03/29 10:42:25;;;;;;;0.10;0.10;;;;;;;;;;5126106;27;20252;-74
2022/03/29 10:44:58;;;;;;;0.10;0.10;;;;;;;;;;5103567;28;20203;-74
2022/03/29 10:47:29;;;;;;;0.10;0.10;;;;;;;;;;5125763;27;20417;-72
2022/03/29 10:49:55;;;;;;;0.10;0.10;;;;;;;;;;5103212;28;20201;-74
2022/03/29 10:52:28;;;;;;;0.63;0.63;;;;;;;;;;5125438;27;20417;-74
2022/03/29 10:55:14;;;;;;;0.10;0.10;;;;;;;;;;5102938;28;20202;-74
2022/03/29 10:57:40;;;;;;;0.10;0.10;;;;;;;;;;5095857;28;20263;-75
2022/03/29 11:00:21;;;;;;;0.20;0.20;;;;;;;;;;5093255;27;20426;-75
2022/03/29 11:03:07;;;;;;;0.20;0.20;;;;;;;;;;5131801;27;20223;-73
2022/03/29 11:05:55;;;;;;;0.10;0.10;;;;;;;;;;5100581;27;20242;-73
2022/03/29 11:08:21;;;;;;;0.10;0.10;;;;;;;;;;5122079;27;20229;-74
2022/03/29 11:10:49;;;;;;;0.10;0.10;;;;;;;;;;5104186;27;20252;-76
2022/03/29 11:13:25;;;;;;;0.10;0.10;;;;;;;;;;5124069;27;20205;-75
2022/03/29 11:15:51;;;;;;;0.10;0.10;;;;;;;;;;5103138;27;20240;-78
2022/03/29 11:18:37;;;;;;;0.10;0.10;;;;;;;;;;5123454;28;20205;-75
2022/03/29 11:21:04;;;;;;;0.10;0.10;;;;;;;;;;5108613;27;20263;-80
2022/03/29 11:23:32;;;;;;;0.20;0.20;;;;;;;;;;5119974;28;20397;-78
2022/03/29 11:26:04;;;;;;;0.10;0.10;;;;;;;;;;5107248;27;20249;-75
2022/03/29 11:28:31;;;;;;;0.10;0.10;;;;;;;;;;5120152;28;20230;-74
2022/03/29 11:30:57;;;;;;;0.10;0.10;;;;;;;;;;5106683;27;20237;-75
2022/03/29 11:33:30;;;;;;;0.10;0.10;;;;;;;;;;5121301;28;20211;-75
2022/03/29 11:35:56;;;;;;;0.10;0.10;;;;;;;;;;5106317;27;20477;-76
2022/03/29 11:38:23;;;;;;;0.10;0.10;;;;;;;;;;5121696;28;20394;-76
2022/03/29 11:40:49;;;;;;;0.10;0.10;;;;;;;;;;5104452;27;20240;-74
2022/03/29 11:43:22;;;;;;;0.10;0.10;;;;;;;;;;5123651;28;20366;-74
2022/03/29 11:45:49;;;;;;;0.10;0.10;;;;;;;;;;5104089;27;20243;-73
2022/03/29 11:48:18;;;;;;;0.00;0.00;;;;;;;;;;5123379;28;20229;-74
2022/03/29 11:50:49;;;;;;;0.00;0.00;;;;;;;;;;5102745;27;20248;-76
2022/03/29 11:53:16;;;;;;;0.10;0.10;;;;;;;;;;5125252;27;20254;-76
2022/03/29 11:55:43;;;;;;;0.10;0.10;;;;;;;;;;5106255;27;20240;-74
2022/03/29 11:58:21;;;;;;;0.10;0.10;;;;;;;;;;5129118;27;20221;-74
2022/03/29 12:00:48;;;;;;;0.10;0.10;;;;;;;;;;5106643;27;20339;-75
2022/03/29 12:03:14;;;;;;;0.10;0.10;;;;;;;;;;5128805;27;20387;-74
2022/03/29 12:05:40;;;;;;;0.10;0.10;;;;;;;;;;5105545;27;20244;-73
2022/03/29 12:08:08;;;;;;;0.00;0.00;;;;;;;;;;5129196;27;20409;-73
2022/03/29 12:10:36;;;;;;;0.10;0.10;;;;;;;;;;5103939;27;20302;-74
2022/03/29 12:13:02;;;;;;;0.03;0.03;;;;;;;;;;5130777;27;20199;-75
2022/03/29 12:15:32;;;;;;;0.10;0.10;;;;;;;;;;5102125;27;20238;-73
2022/03/29 12:20:40;;;;;;;0.00;0.00;;;;;;;;;;5104907;27;20474;-75
2022/03/29 12:23:15;;;;;;;0.10;0.10;;;;;;;;;;5129523;27;20459;-75
2022/03/29 12:25:41;;;;;;;0.10;0.10;;;;;;;;;;5105888;27;20443;-75
2022/03/29 12:28:08;;;;;;;0.10;0.10;;;;;;;;;;5128810;27;20231;-74
2022/03/29 12:30:36;;;;;;;0.03;0.03;;;;;;;;;;5103399;27;20431;-74
2022/03/29 12:33:02;;;;;;;0.10;0.10;;;;;;;;;;5130713;27;20491;-75
2022/03/29 12:35:30;;;;;;;1.80;1.70;;;;;;;;;;5101901;27;20238;-74
2022/03/29 12:38:02;;;;;;;0.10;0.10;;;;;;;;;;5131826;27;20200;-75
2022/03/29 12:40:28;;;;;;;0.10;0.10;;;;;;;;;;5101971;27;20251;-75
2022/03/29 12:43:01;;;;;;;0.10;0.10;;;;;;;;;;5132278;27;20203;-75
2022/03/29 12:45:29;;;;;;;0.10;0.10;;;;;;;;;;5101410;27;20237;-77
2022/03/29 12:47:58;;;;;;;0.07;0.07;;;;;;;;;;5131882;27;20228;-75
2022/03/29 12:50:25;;;;;;;0.10;0.10;;;;;;;;;;5100632;27;20273;-74
2022/03/29 12:52:51;;;;;;;0.10;0.10;;;;;;;;;;5132904;27;20216;-73
2022/03/29 12:55:19;;;;;;;0.10;0.10;;;;;;;;;;5098397;27;20203;-74
2022/03/29 12:57:46;;;;;;;0.10;0.10;;;;;;;;;;5134542;27;20207;-74
2022/03/29 13:00:14;;;;;;;0.73;0.73;;;;;;;;;;5097041;27;20235;-75
2022/03/29 13:02:43;;;;;;;0.10;0.10;;;;;;;;;;5136012;27;20242;-77
2022/03/29 13:05:11;;;;;;;0.10;0.10;;;;;;;;;;5094662;27;20576;-76
2022/03/29 13:07:41;;;;;;;0.10;0.10;;;;;;;;;;5136703;27;20226;-76
2022/03/29 13:10:10;;;;;;;0.10;0.10;;;;;;;;;;5095301;27;20203;-79
2022/03/29 13:12:50;;;;;;;0.00;0.00;;;;;;;;;;5137089;27;20218;-76
2022/03/29 13:15:39;;;;;;;0.10;0.10;;;;;;;;;;5097817;27;20202;-75
2022/03/29 13:18:06;;;;;;;0.10;0.10;;;;;;;;;;5128861;27;20203;-75
2022/03/29 13:20:37;;;;;;;0.10;0.10;;;;;;;;;;5101652;27;20237;-75
2022/03/29 13:23:03;;;;;;;0.10;0.10;;;;;;;;;;5129808;27;20206;-75
2022/03/29 13:25:32;;;;;;;0.10;0.10;;;;;;;;;;5101521;27;20242;-77
2022/03/29 13:27:59;;;;;;;0.00;0.00;;;;;;;;;;5129900;27;20230;-76
2022/03/29 13:30:25;;;;;;;0.10;0.10;;;;;;;;;;5100139;27;20284;-74
2022/03/29 13:32:52;;;;;;;0.10;0.10;;;;;;;;;;5132021;27;20381;-75
2022/03/29 13:35:19;;;;;;;0.10;0.10;;;;;;;;;;5098414;27;20223;-77
2022/03/29 13:37:46;;;;;;;0.00;0.00;;;;;;;;;;5133400;27;20203;-75
2022/03/29 13:40:13;;;;;;;0.10;0.10;;;;;;;;;;5096482;27;20205;-74
2022/03/29 13:42:39;;;;;;;0.10;0.10;;;;;;;;;;5135333;27;20215;-77
2022/03/29 13:45:06;;;;;;;0.00;0.00;;;;;;;;;;5096062;28;20210;-75
2022/03/29 13:47:34;;;;;;;0.00;0.00;;;;;;;;;;5136967;27;20222;-73
2022/03/29 13:50:00;;;;;;;0.10;0.10;;;;;;;;;;5104552;28;20203;-75
2022/03/29 13:52:26;;;;;;;0.07;0.07;;;;;;;;;;5126824;27;20320;-75
2022/03/29 13:54:54;;;;;;;0.10;0.10;;;;;;;;;;5104253;28;20206;-75
2022/03/29 13:57:21;;;;;;;8.90;8.60;;;;;;;;;;5126680;27;20229;-75
2022/03/29 13:59:47;;;;;;;0.10;0.10;;;;;;;;;;5104244;28;20221;-76
2022/03/29 14:02:14;;;;;;;0.10;0.10;;;;;;;;;;5126668;27;20312;-75
2022/03/29 14:04:41;;;;;;;0.10;0.10;;;;;;;;;;5104389;28;20227;-77
2022/03/29 14:07:07;;;;;;;11.83;11.13;;;;;;;;;;5126639;27;20234;-74
2022/03/29 14:09:34;;;;;;;0.10;0.10;;;;;;;;;;5104264;28;20224;-78
2022/03/29 14:12:04;;;;;;;0.10;0.10;;;;;;;;;;5124955;27;20301;-77
2022/03/29 14:14:30;;;;;;;0.00;0.00;;;;;;;;;;5104976;28;20203;-76
2022/03/29 14:16:56;;;;;;;0.10;0.10;;;;;;;;;;5123468;27;20258;-74
2022/03/29 14:19:23;;;;;;;0.10;0.10;;;;;;;;;;5105967;27;20209;-76
2022/03/29 14:21:50;;;;;;;0.10;0.10;;;;;;;;;;5121530;27;20244;-75
2022/03/29 14:24:18;;;;;;;0.10;0.10;;;;;;;;;;5108198;27;20229;-76
2022/03/29 14:26:44;;;;;;;0.10;0.10;;;;;;;;;;5119789;27;20244;-75
2022/03/29 14:29:12;;;;;;;0.10;0.10;;;;;;;;;;5109854;27;20229;-75
2022/03/29 14:31:39;;;;;;;0.00;0.00;;;;;;;;;;5118396;27;20292;-73
2022/03/29 14:34:06;;;;;;;0.10;0.10;;;;;;;;;;5110882;27;20275;-73
2022/03/29 14:36:33;;;;;;;0.00;0.00;;;;;;;;;;5116462;27;20640;-73
2022/03/29 14:39:00;;;;;;;0.10;0.10;;;;;;;;;;5112092;27;20210;-73
2022/03/29 14:41:26;;;;;;;0.10;0.10;;;;;;;;;;5106293;27;20491;-73
2022/03/29 14:43:52;;;;;;;0.10;0.10;;;;;;;;;;5114185;27;20447;-72
2022/03/29 14:46:20;;;;;;;0.10;0.10;;;;;;;;;;5112847;27;20631;-74
2022/03/29 14:48:46;;;;;;;0.00;0.00;;;;;;;;;;5116064;27;20542;-72
2022/03/29 14:51:13;;;;;;;0.10;0.10;;;;;;;;;;5111386;27;20249;-73
2022/03/29 14:53:41;;;;;;;0.73;0.73;;;;;;;;;;5117945;27;20206;-71
2022/03/29 14:56:07;;;;;;;0.10;0.10;;;;;;;;;;5109668;27;20357;-74
2022/03/29 14:58:33;;;;;;;0.20;0.20;;;;;;;;;;5119193;27;20203;-73
2022/03/29 15:01:00;;;;;;;0.10;0.10;;;;;;;;;;5107060;27;20307;-71
2022/03/29 15:03:28;;;;;;;0.10;0.10;;;;;;;;;;5121282;27;20394;-72
2022/03/29 15:05:55;;;;;;;0.10;0.10;;;;;;;;;;5105866;27;20525;-74
2022/03/29 15:08:21;;;;;;;0.03;0.03;;;;;;;;;;5121924;27;20274;-73
2022/03/29 15:10:48;;;;;;;0.10;0.10;;;;;;;;;;5103974;27;20308;-74
2022/03/29 15:13:15;;;;;;;0.00;0.00;;;;;;;;;;5124223;28;20210;-73
2022/03/29 15:15:41;;;;;;;0.10;0.10;;;;;;;;;;5102191;27;20310;-74
2022/03/29 15:18:07;;;;;;;1.27;1.27;;;;;;;;;;5125954;28;20213;-74
2022/03/29 15:20:35;;;;;;;0.10;0.10;;;;;;;;;;5100589;27;20249;-73
2022/03/29 15:23:02;;;;;;;0.10;0.10;;;;;;;;;;5127399;28;20213;-71
2022/03/29 15:25:28;;;;;;;0.10;0.10;;;;;;;;;;5098857;27;20397;-73
2022/03/29 15:27:54;;;;;;;0.10;0.10;;;;;;;;;;5130399;27;20205;-72
2022/03/29 15:30:21;;;;;;;0.10;0.10;;;;;;;;;;5100580;27;20213;-73
2022/03/29 15:32:47;;;;;;;0.10;0.10;;;;;;;;;;5135400;27;20449;-76
2022/03/29 15:35:13;;;;;;;0.00;0.00;;;;;;;;;;5098683;27;20219;-75
2022/03/29 15:37:44;;;;;;;0.10;0.10;;;;;;;;;;5121667;28;20239;-77
2022/03/29 15:40:11;;;;;;;0.10;0.10;;;;;;;;;;5099457;27;20262;-78
2022/03/29 15:42:38;;;;;;;0.10;0.10;;;;;;;;;;5140590;27;20207;-77
2022/03/29 15:45:06;;;;;;;0.10;0.10;;;;;;;;;;5110053;28;20240;-77
2022/03/29 15:47:32;;;;;;;0.10;0.10;;;;;;;;;;5095679;28;20407;-78
2022/03/29 15:49:59;;;;;;;0.10;0.10;;;;;;;;;;5107539;28;20229;-77
2022/03/29 15:52:26;;;;;;;0.10;0.10;;;;;;;;;;5129626;27;20244;-78
2022/03/29 15:54:55;;;;;;;0.10;0.10;;;;;;;;;;5107141;28;20198;-74
2022/03/29 15:57:24;;;;;;;0.10;0.10;;;;;;;;;;5129032;27;20243;-78
2022/03/29 15:59:50;;;;;;;0.10;0.10;;;;;;;;;;5106970;28;20213;-76
2022/03/29 16:02:20;;;;;;;0.10;0.10;;;;;;;;;;5127384;27;20241;-78
2022/03/29 16:04:50;;;;;;;0.10;0.10;;;;;;;;;;5107059;28;20203;-77
2022/03/29 16:07:17;;;;;;;0.10;0.10;;;;;;;;;;5129136;27;20262;-76
2022/03/29 16:09:44;;;;;;;0.10;0.10;;;;;;;;;;5106680;28;20296;-77
2022/03/29 16:12:14;;;;;;;0.10;0.10;;;;;;;;;;5129272;27;20247;-78
2022/03/29 16:14:40;;;;;;;0.10;0.10;;;;;;;;;;5106217;28;20195;-76
2022/03/29 16:17:07;;;;;;;0.10;0.10;;;;;;;;;;5128506;27;20231;-78
2022/03/29 16:19:36;;;;;;;0.10;0.10;;;;;;;;;;5106208;28;20223;-78